sensor_id;sensor_type;location;lat;lon;timestamp;noise_LAeq;noise_LA_min;noise_LA_max;noise_LA01;noise_LA95
71628;Laerm;59477;52.374;9.916;2023-12-22T00:00:48;55.12;46.03;78.85;;
71628;Laerm;59477;52.374;9.916;2023-12-22T00:02:49;54.81;47.47;69.26;;
71628;Laerm;59477;52.374;9.916;2023-12-22T00:04:49;52.38;47.50;67.94;;
71628;Laerm;59477;52.374;9.916;2023-12-22T00:06:49;53.14;47.42;70.89;;
71628;Laerm;59477;52.374;9.916;2023-12-22T00:08:52;57.44;46.23;79.13;;
71628;Laerm;59477;52.374;9.916;2023-12-22T00:10:52;55.00;46.14;78.30;;
71628;Laerm;59477;52.374;9.916;2023-12-22T00:12:52;51.46;44.96;61.34;;
71628;Laerm;59477;52.374;9.916;2023-12-22T00:14:52;53.10;46.98;73.31;;
71628;Laerm;59477;52.374;9.916;2023-12-22T00:16:53;57.94;48.06;75.72;;
71628;Laerm;59477;52.374;9.916;2023-12-22T00:18:56;58.21;49.29;77.85;;
71628;Laerm;59477;52.374;9.916;2023-12-22T00:20:57;53.38;47.40;72.57;;
71628;Laerm;59477;52.374;9.916;2023-12-22T00:22:57;49.97;45.71;55.98;;
71628;Laerm;59477;52.374;9.916;2023-12-22T00:24:58;57.35;46.50;79.98;;
71628;Laerm;59477;52.374;9.916;2023-12-22T00:26:58;53.13;47.49;67.48;;
71628;Laerm;59477;52.374;9.916;2023-12-22T00:28:58;54.81;45.99;79.25;;
71628;Laerm;59477;52.374;9.916;2023-12-22T00:30:58;49.82;45.49;59.61;;
71628;Laerm;59477;52.374;9.916;2023-12-22T00:32:59;51.94;45.60;65.66;;
71628;Laerm;59477;52.374;9.916;2023-12-22T00:34:59;52.85;47.26;71.29;;
71628;Laerm;59477;52.374;9.916;2023-12-22T00:36:59;52.57;47.80;62.62;;
71628;Laerm;59477;52.374;9.916;2023-12-22T00:39:00;52.20;47.51;65.60;;
71628;Laerm;59477;52.374;9.916;2023-12-22T00:41:00;56.92;48.55;78.41;;
71628;Laerm;59477;52.374;9.916;2023-12-22T00:43:00;55.99;46.53;81.95;;
71628;Laerm;59477;52.374;9.916;2023-12-22T00:45:01;53.63;47.40;71.98;;
71628;Laerm;59477;52.374;9.916;2023-12-22T00:47:01;55.77;47.76;76.62;;
71628;Laerm;59477;52.374;9.916;2023-12-22T00:49:01;54.49;48.40;69.63;;
71628;Laerm;59477;52.374;9.916;2023-12-22T00:51:01;55.60;49.46;66.45;;
71628;Laerm;59477;52.374;9.916;2023-12-22T00:53:03;58.86;47.04;79.41;;
71628;Laerm;59477;52.374;9.916;2023-12-22T00:55:03;53.22;46.96;65.73;;
71628;Laerm;59477;52.374;9.916;2023-12-22T00:57:03;54.69;47.57;73.53;;
71628;Laerm;59477;52.374;9.916;2023-12-22T00:59:04;55.40;48.34;72.90;;
71628;Laerm;59477;52.374;9.916;2023-12-22T01:01:04;56.47;48.07;73.03;;
71628;Laerm;59477;52.374;9.916;2023-12-22T01:03:04;55.41;47.06;72.28;;
71628;Laerm;59477;52.374;9.916;2023-12-22T01:05:05;57.17;47.18;77.36;;
71628;Laerm;59477;52.374;9.916;2023-12-22T01:07:07;56.38;46.97;73.45;;
71628;Laerm;59477;52.374;9.916;2023-12-22T01:09:07;54.45;46.50;71.98;;
71628;Laerm;59477;52.374;9.916;2023-12-22T01:11:07;53.10;45.89;67.38;;
71628;Laerm;59477;52.374;9.916;2023-12-22T01:13:07;52.07;46.55;71.85;;
71628;Laerm;59477;52.374;9.916;2023-12-22T01:15:08;57.35;47.58;74.11;;
71628;Laerm;59477;52.374;9.916;2023-12-22T01:17:08;61.30;49.08;82.78;;
71628;Laerm;59477;52.374;9.916;2023-12-22T01:19:08;55.69;44.73;77.70;;
71628;Laerm;59477;52.374;9.916;2023-12-22T01:21:09;54.07;47.03;73.39;;
71628;Laerm;59477;52.374;9.916;2023-12-22T01:23:09;60.07;49.27;78.57;;
71628;Laerm;59477;52.374;9.916;2023-12-22T01:25:09;50.92;46.99;62.26;;
71628;Laerm;59477;52.374;9.916;2023-12-22T01:27:10;57.34;48.70;72.25;;
71628;Laerm;59477;52.374;9.916;2023-12-22T01:29:10;56.25;46.13;75.32;;
71628;Laerm;59477;52.374;9.916;2023-12-22T01:31:10;54.06;45.94;76.01;;
71628;Laerm;59477;52.374;9.916;2023-12-22T01:33:10;53.31;45.93;72.47;;
71628;Laerm;59477;52.374;9.916;2023-12-22T01:35:11;52.19;46.71;72.39;;
71628;Laerm;59477;52.374;9.916;2023-12-22T01:37:11;56.03;48.93;82.98;;
71628;Laerm;59477;52.374;9.916;2023-12-22T01:39:11;56.23;47.92;77.59;;
71628;Laerm;59477;52.374;9.916;2023-12-22T01:41:11;53.54;47.20;77.45;;
71628;Laerm;59477;52.374;9.916;2023-12-22T01:43:12;59.01;49.19;81.37;;
71628;Laerm;59477;52.374;9.916;2023-12-22T01:45:13;54.21;47.04;77.76;;
71628;Laerm;59477;52.374;9.916;2023-12-22T01:47:14;59.25;49.26;84.49;;
71628;Laerm;59477;52.374;9.916;2023-12-22T01:49:14;56.33;45.51;79.19;;
71628;Laerm;59477;52.374;9.916;2023-12-22T01:51:15;50.36;45.21;64.27;;
71628;Laerm;59477;52.374;9.916;2023-12-22T01:53:15;50.32;44.53;62.72;;
71628;Laerm;59477;52.374;9.916;2023-12-22T01:55:15;50.63;45.96;69.11;;
71628;Laerm;59477;52.374;9.916;2023-12-22T01:57:17;52.37;46.11;67.97;;
71628;Laerm;59477;52.374;9.916;2023-12-22T01:59:19;50.13;43.64;59.48;;
71628;Laerm;59477;52.374;9.916;2023-12-22T02:01:19;51.36;45.37;62.29;;
71628;Laerm;59477;52.374;9.916;2023-12-22T02:03:20;55.17;48.01;67.31;;
71628;Laerm;59477;52.374;9.916;2023-12-22T02:05:21;56.12;46.57;68.02;;
71628;Laerm;59477;52.374;9.916;2023-12-22T02:07:21;52.26;46.03;70.15;;
71628;Laerm;59477;52.374;9.916;2023-12-22T02:09:21;55.06;48.79;75.37;;
71628;Laerm;59477;52.374;9.916;2023-12-22T02:11:21;53.29;46.35;63.94;;
71628;Laerm;59477;52.374;9.916;2023-12-22T02:13:22;54.10;47.94;75.82;;
71628;Laerm;59477;52.374;9.916;2023-12-22T02:15:22;53.35;47.10;64.45;;
71628;Laerm;59477;52.374;9.916;2023-12-22T02:19:42;50.51;46.20;60.55;;
71628;Laerm;59477;52.374;9.916;2023-12-22T02:24:01;53.19;46.99;71.30;;
71628;Laerm;59477;52.374;9.916;2023-12-22T02:28:20;54.52;46.21;66.05;;
71628;Laerm;59477;52.374;9.916;2023-12-22T02:32:30;55.62;47.44;72.21;;
71628;Laerm;59477;52.374;9.916;2023-12-22T02:34:31;57.75;48.58;68.31;;
71628;Laerm;59477;52.374;9.916;2023-12-22T02:36:35;59.91;48.30;80.99;;
71628;Laerm;59477;52.374;9.916;2023-12-22T02:38:36;60.54;48.05;79.37;;
71628;Laerm;59477;52.374;9.916;2023-12-22T02:40:37;60.49;50.72;80.13;;
71628;Laerm;59477;52.374;9.916;2023-12-22T02:42:38;61.11;50.74;84.16;;
71628;Laerm;59477;52.374;9.916;2023-12-22T02:44:38;59.62;51.33;77.79;;
71628;Laerm;59477;52.374;9.916;2023-12-22T02:46:39;63.43;49.68;86.89;;
71628;Laerm;59477;52.374;9.916;2023-12-22T02:48:40;63.59;52.97;79.87;;
71628;Laerm;59477;52.374;9.916;2023-12-22T02:50:41;64.34;52.29;84.53;;
71628;Laerm;59477;52.374;9.916;2023-12-22T02:52:41;60.67;50.09;78.86;;
71628;Laerm;59477;52.374;9.916;2023-12-22T02:54:41;58.50;49.13;73.83;;
71628;Laerm;59477;52.374;9.916;2023-12-22T02:56:42;57.17;50.57;72.14;;
71628;Laerm;59477;52.374;9.916;2023-12-22T02:58:42;60.92;51.94;82.09;;
71628;Laerm;59477;52.374;9.916;2023-12-22T03:00:43;59.94;47.53;75.52;;
71628;Laerm;59477;52.374;9.916;2023-12-22T03:02:43;55.48;47.35;71.57;;
71628;Laerm;59477;52.374;9.916;2023-12-22T03:04:43;54.49;47.00;69.89;;
71628;Laerm;59477;52.374;9.916;2023-12-22T03:06:44;59.97;47.05;76.77;;
71628;Laerm;59477;52.374;9.916;2023-12-22T03:08:44;52.89;48.11;63.43;;
71628;Laerm;59477;52.374;9.916;2023-12-22T03:10:44;53.53;45.83;73.35;;
71628;Laerm;59477;52.374;9.916;2023-12-22T03:18:48;51.82;47.67;66.89;;
71628;Laerm;59477;52.374;9.916;2023-12-22T03:21:07;53.85;47.93;78.07;;
71628;Laerm;59477;52.374;9.916;2023-12-22T03:23:26;52.08;46.80;66.65;;
71628;Laerm;59477;52.374;9.916;2023-12-22T03:25:45;58.46;48.02;78.96;;
71628;Laerm;59477;52.374;9.916;2023-12-22T03:28:10;61.46;50.85;89.45;;
71628;Laerm;59477;52.374;9.916;2023-12-22T03:30:32;61.63;51.40;81.37;;
71628;Laerm;59477;52.374;9.916;2023-12-22T03:32:54;57.62;48.87;84.20;;
71628;Laerm;59477;52.374;9.916;2023-12-22T03:35:13;53.90;48.58;71.82;;
71628;Laerm;59477;52.374;9.916;2023-12-22T03:37:43;55.48;47.97;78.05;;
71628;Laerm;59477;52.374;9.916;2023-12-22T03:40:05;54.30;48.15;69.66;;
71628;Laerm;59477;52.374;9.916;2023-12-22T03:42:24;53.61;47.10;66.79;;
71628;Laerm;59477;52.374;9.916;2023-12-22T03:45:04;53.34;47.01;69.67;;
71628;Laerm;59477;52.374;9.916;2023-12-22T03:47:19;52.59;47.66;64.04;;
71628;Laerm;59477;52.374;9.916;2023-12-22T03:49:22;51.18;45.99;59.62;;
71628;Laerm;59477;52.374;9.916;2023-12-22T03:54:04;56.04;46.54;71.58;;
71628;Laerm;59477;52.374;9.916;2023-12-22T03:56:06;55.52;47.97;78.73;;
71628;Laerm;59477;52.374;9.916;2023-12-22T03:58:07;55.05;47.06;84.25;;
71628;Laerm;59477;52.374;9.916;2023-12-22T04:00:07;53.24;46.67;72.35;;
71628;Laerm;59477;52.374;9.916;2023-12-22T04:02:08;53.69;47.10;73.27;;
71628;Laerm;59477;52.374;9.916;2023-12-22T04:04:08;57.05;50.73;75.77;;
71628;Laerm;59477;52.374;9.916;2023-12-22T04:06:08;52.82;47.54;67.34;;
71628;Laerm;59477;52.374;9.916;2023-12-22T04:08:09;53.16;47.10;65.68;;
71628;Laerm;59477;52.374;9.916;2023-12-22T04:10:09;54.28;47.85;69.80;;
71628;Laerm;59477;52.374;9.916;2023-12-22T04:12:09;52.77;47.69;66.41;;
71628;Laerm;59477;52.374;9.916;2023-12-22T04:14:10;57.19;50.51;71.97;;
71628;Laerm;59477;52.374;9.916;2023-12-22T04:16:10;53.56;46.86;73.83;;
71628;Laerm;59477;52.374;9.916;2023-12-22T04:18:10;54.18;47.12;79.53;;
71628;Laerm;59477;52.374;9.916;2023-12-22T04:20:11;57.20;48.39;77.59;;
71628;Laerm;59477;52.374;9.916;2023-12-22T04:22:12;53.23;48.28;68.64;;
71628;Laerm;59477;52.374;9.916;2023-12-22T04:24:12;53.31;47.45;62.93;;
71628;Laerm;59477;52.374;9.916;2023-12-22T04:26:13;54.76;47.95;75.25;;
71628;Laerm;59477;52.374;9.916;2023-12-22T04:28:13;54.22;48.40;66.74;;
71628;Laerm;59477;52.374;9.916;2023-12-22T04:30:13;53.14;48.69;69.90;;
71628;Laerm;59477;52.374;9.916;2023-12-22T04:32:13;58.04;49.53;80.31;;
71628;Laerm;59477;52.374;9.916;2023-12-22T04:34:14;56.94;50.28;79.57;;
71628;Laerm;59477;52.374;9.916;2023-12-22T04:36:17;60.51;49.81;80.95;;
71628;Laerm;59477;52.374;9.916;2023-12-22T04:38:17;63.72;53.30;82.63;;
71628;Laerm;59477;52.374;9.916;2023-12-22T04:40:17;60.93;51.83;82.29;;
71628;Laerm;59477;52.374;9.916;2023-12-22T04:42:18;64.52;52.20;89.74;;
71628;Laerm;59477;52.374;9.916;2023-12-22T04:44:18;60.50;50.89;80.06;;
71628;Laerm;59477;52.374;9.916;2023-12-22T04:46:18;58.02;50.88;70.26;;
71628;Laerm;59477;52.374;9.916;2023-12-22T04:48:19;55.67;48.89;71.76;;
71628;Laerm;59477;52.374;9.916;2023-12-22T04:50:19;53.90;49.20;69.26;;
71628;Laerm;59477;52.374;9.916;2023-12-22T04:52:19;53.81;49.13;65.61;;
71628;Laerm;59477;52.374;9.916;2023-12-22T04:54:19;56.88;48.95;80.45;;
71628;Laerm;59477;52.374;9.916;2023-12-22T04:56:20;54.15;47.36;68.50;;
71628;Laerm;59477;52.374;9.916;2023-12-22T04:58:20;53.76;47.89;62.31;;
71628;Laerm;59477;52.374;9.916;2023-12-22T05:00:20;55.71;48.82;82.01;;
71628;Laerm;59477;52.374;9.916;2023-12-22T05:02:21;59.12;52.68;81.81;;
71628;Laerm;59477;52.374;9.916;2023-12-22T05:04:21;59.85;52.55;81.24;;
71628;Laerm;59477;52.374;9.916;2023-12-22T05:06:22;56.90;50.92;70.81;;
71628;Laerm;59477;52.374;9.916;2023-12-22T05:08:22;55.21;49.99;69.81;;
71628;Laerm;59477;52.374;9.916;2023-12-22T05:10:22;57.27;50.87;80.22;;
71628;Laerm;59477;52.374;9.916;2023-12-22T05:12:22;54.91;50.83;66.66;;
71628;Laerm;59477;52.374;9.916;2023-12-22T05:14:23;55.78;50.86;70.79;;
71628;Laerm;59477;52.374;9.916;2023-12-22T05:16:23;54.15;49.79;69.16;;
71628;Laerm;59477;52.374;9.916;2023-12-22T05:18:23;55.57;50.52;67.65;;
71628;Laerm;59477;52.374;9.916;2023-12-22T05:20:24;56.76;51.56;73.60;;
71628;Laerm;59477;52.374;9.916;2023-12-22T05:22:24;57.10;51.11;79.06;;
71628;Laerm;59477;52.374;9.916;2023-12-22T05:24:24;57.75;51.66;76.37;;
71628;Laerm;59477;52.374;9.916;2023-12-22T05:26:25;62.93;52.55;85.33;;
71628;Laerm;59477;52.374;9.916;2023-12-22T05:28:30;59.26;52.84;76.58;;
71628;Laerm;59477;52.374;9.916;2023-12-22T05:30:30;55.49;49.87;65.24;;
71628;Laerm;59477;52.374;9.916;2023-12-22T05:32:30;55.77;50.78;75.63;;
71628;Laerm;59477;52.374;9.916;2023-12-22T05:34:30;59.02;51.55;80.54;;
71628;Laerm;59477;52.374;9.916;2023-12-22T05:36:31;57.51;51.75;69.02;;
71628;Laerm;59477;52.374;9.916;2023-12-22T05:38:31;55.40;50.86;69.04;;
71628;Laerm;59477;52.374;9.916;2023-12-22T05:40:32;66.02;51.79;89.41;;
71628;Laerm;59477;52.374;9.916;2023-12-22T05:42:32;63.96;52.61;82.09;;
71628;Laerm;59477;52.374;9.916;2023-12-22T05:44:32;59.69;52.01;73.88;;
71628;Laerm;59477;52.374;9.916;2023-12-22T05:46:37;57.49;51.44;72.73;;
71628;Laerm;59477;52.374;9.916;2023-12-22T05:48:40;61.97;50.73;81.54;;
71628;Laerm;59477;52.374;9.916;2023-12-22T05:50:41;56.09;50.79;76.71;;
71628;Laerm;59477;52.374;9.916;2023-12-22T05:52:41;56.46;51.96;70.47;;
71628;Laerm;59477;52.374;9.916;2023-12-22T05:54:41;55.30;50.39;62.48;;
71628;Laerm;59477;52.374;9.916;2023-12-22T05:56:41;55.83;51.77;64.32;;
71628;Laerm;59477;52.374;9.916;2023-12-22T05:58:42;58.26;51.89;74.33;;
71628;Laerm;59477;52.374;9.916;2023-12-22T06:00:42;59.28;51.38;77.87;;
71628;Laerm;59477;52.374;9.916;2023-12-22T06:02:42;55.51;50.81;77.04;;
71628;Laerm;59477;52.374;9.916;2023-12-22T06:04:43;56.09;49.70;70.13;;
71628;Laerm;59477;52.374;9.916;2023-12-22T06:06:43;61.59;50.37;80.16;;
71628;Laerm;59477;52.374;9.916;2023-12-22T06:08:44;63.49;52.79;85.28;;
71628;Laerm;59477;52.374;9.916;2023-12-22T06:10:45;60.55;52.36;78.31;;
71628;Laerm;59477;52.374;9.916;2023-12-22T06:12:45;61.55;51.70;80.15;;
71628;Laerm;59477;52.374;9.916;2023-12-22T06:14:45;58.57;51.42;78.71;;
71628;Laerm;59477;52.374;9.916;2023-12-22T06:16:46;65.64;52.98;84.20;;
71628;Laerm;59477;52.374;9.916;2023-12-22T06:18:46;64.10;50.77;85.29;;
71628;Laerm;59477;52.374;9.916;2023-12-22T06:20:46;58.39;52.20;75.71;;
71628;Laerm;59477;52.374;9.916;2023-12-22T06:22:46;62.69;53.02;87.78;;
71628;Laerm;59477;52.374;9.916;2023-12-22T06:24:47;63.73;55.08;85.66;;
71628;Laerm;59477;52.374;9.916;2023-12-22T06:26:47;67.52;52.25;90.22;;
71628;Laerm;59477;52.374;9.916;2023-12-22T06:28:47;68.06;53.43;88.86;;
71628;Laerm;59477;52.374;9.916;2023-12-22T06:30:47;72.63;55.47;95.17;;
71628;Laerm;59477;52.374;9.916;2023-12-22T06:32:47;61.36;53.05;79.63;;
71628;Laerm;59477;52.374;9.916;2023-12-22T06:34:48;60.74;52.71;80.31;;
71628;Laerm;59477;52.374;9.916;2023-12-22T06:36:48;60.98;52.58;81.44;;
71628;Laerm;59477;52.374;9.916;2023-12-22T06:38:50;59.46;52.68;75.04;;
71628;Laerm;59477;52.374;9.916;2023-12-22T06:40:50;61.26;52.93;90.11;;
71628;Laerm;59477;52.374;9.916;2023-12-22T06:42:50;58.11;51.94;76.41;;
71628;Laerm;59477;52.374;9.916;2023-12-22T06:44:51;61.62;52.64;83.01;;
71628;Laerm;59477;52.374;9.916;2023-12-22T06:46:51;58.54;51.73;74.76;;
71628;Laerm;59477;52.374;9.916;2023-12-22T06:48:52;61.11;53.67;80.13;;
71628;Laerm;59477;52.374;9.916;2023-12-22T06:50:56;61.72;53.63;80.97;;
71628;Laerm;59477;52.374;9.916;2023-12-22T06:52:56;60.76;53.13;76.59;;
71628;Laerm;59477;52.374;9.916;2023-12-22T06:54:57;62.58;52.48;85.25;;
71628;Laerm;59477;52.374;9.916;2023-12-22T06:56:57;62.43;53.35;80.20;;
71628;Laerm;59477;52.374;9.916;2023-12-22T06:58:57;64.52;53.12;82.78;;
71628;Laerm;59477;52.374;9.916;2023-12-22T07:00:57;57.12;51.88;71.17;;
71628;Laerm;59477;52.374;9.916;2023-12-22T07:02:58;57.28;52.02;75.77;;
71628;Laerm;59477;52.374;9.916;2023-12-22T07:07:26;57.79;50.34;73.67;;
71628;Laerm;59477;52.374;9.916;2023-12-22T07:09:27;59.17;50.83;80.31;;
71628;Laerm;59477;52.374;9.916;2023-12-22T07:11:28;56.29;50.81;71.78;;
71628;Laerm;59477;52.374;9.916;2023-12-22T07:13:28;57.10;51.09;71.31;;
71628;Laerm;59477;52.374;9.916;2023-12-22T07:15:29;64.13;50.68;85.57;;
71628;Laerm;59477;52.374;9.916;2023-12-22T07:17:29;58.91;51.30;81.24;;
71628;Laerm;59477;52.374;9.916;2023-12-22T07:19:29;63.03;51.69;88.28;;
71628;Laerm;59477;52.374;9.916;2023-12-22T07:21:29;66.24;52.86;88.56;;
71628;Laerm;59477;52.374;9.916;2023-12-22T07:23:30;66.44;54.18;85.85;;
71628;Laerm;59477;52.374;9.916;2023-12-22T07:25:34;62.78;52.24;78.90;;
71628;Laerm;59477;52.374;9.916;2023-12-22T07:27:34;61.60;54.37;79.20;;
71628;Laerm;59477;52.374;9.916;2023-12-22T07:29:35;60.60;52.74;76.76;;
71628;Laerm;59477;52.374;9.916;2023-12-22T07:31:35;59.31;53.43;74.87;;
71628;Laerm;59477;52.374;9.916;2023-12-22T07:33:35;57.76;52.61;74.41;;
71628;Laerm;59477;52.374;9.916;2023-12-22T07:35:35;58.22;52.79;72.18;;
71628;Laerm;59477;52.374;9.916;2023-12-22T07:37:36;56.80;52.41;71.76;;
71628;Laerm;59477;52.374;9.916;2023-12-22T07:39:36;57.98;54.21;66.76;;
71628;Laerm;59477;52.374;9.916;2023-12-22T07:41:36;56.78;52.06;61.45;;
71628;Laerm;59477;52.374;9.916;2023-12-22T07:43:36;56.71;49.87;65.55;;
71628;Laerm;59477;52.374;9.916;2023-12-22T07:45:37;55.31;49.81;76.87;;
71628;Laerm;59477;52.374;9.916;2023-12-22T07:47:37;56.23;52.19;66.92;;
71628;Laerm;59477;52.374;9.916;2023-12-22T07:49:38;57.29;51.62;67.54;;
71628;Laerm;59477;52.374;9.916;2023-12-22T07:51:38;55.23;50.78;65.20;;
71628;Laerm;59477;52.374;9.916;2023-12-22T07:53:39;56.74;50.97;69.03;;
71628;Laerm;59477;52.374;9.916;2023-12-22T07:55:39;56.90;52.47;64.96;;
71628;Laerm;59477;52.374;9.916;2023-12-22T07:57:40;56.14;50.93;61.26;;
71628;Laerm;59477;52.374;9.916;2023-12-22T07:59:41;56.09;50.81;63.40;;
71628;Laerm;59477;52.374;9.916;2023-12-22T08:01:42;59.41;52.09;79.75;;
71628;Laerm;59477;52.374;9.916;2023-12-22T08:06:47;78.65;53.98;100.76;;
71628;Laerm;59477;52.374;9.916;2023-12-22T08:08:47;58.41;52.01;85.28;;
71628;Laerm;59477;52.374;9.916;2023-12-22T08:13:32;60.64;54.20;85.99;;
71628;Laerm;59477;52.374;9.916;2023-12-22T08:16:19;58.90;50.70;85.68;;
71628;Laerm;59477;52.374;9.916;2023-12-22T08:18:28;56.44;51.13;74.53;;
71628;Laerm;59477;52.374;9.916;2023-12-22T08:23:31;55.20;50.94;66.27;;
71628;Laerm;59477;52.374;9.916;2023-12-22T08:25:32;55.87;49.34;70.69;;
71628;Laerm;59477;52.374;9.916;2023-12-22T08:27:35;56.23;51.03;65.13;;
71628;Laerm;59477;52.374;9.916;2023-12-22T08:29:44;54.93;50.81;62.75;;
71628;Laerm;59477;52.374;9.916;2023-12-22T08:31:51;55.39;49.91;70.98;;
71628;Laerm;59477;52.374;9.916;2023-12-22T08:33:57;55.80;51.50;69.35;;
71628;Laerm;59477;52.374;9.916;2023-12-22T08:38:23;55.54;49.37;61.24;;
71628;Laerm;59477;52.374;9.916;2023-12-22T08:40:23;59.44;50.35;72.25;;
71628;Laerm;59477;52.374;9.916;2023-12-22T08:42:26;55.41;51.31;60.62;;
71628;Laerm;59477;52.374;9.916;2023-12-22T08:46:41;55.57;51.36;67.52;;
71628;Laerm;59477;52.374;9.916;2023-12-22T08:49:00;56.00;51.75;66.32;;
71628;Laerm;59477;52.374;9.916;2023-12-22T08:51:19;56.86;50.85;78.26;;
71628;Laerm;59477;52.374;9.916;2023-12-22T08:53:38;57.43;50.90;73.62;;
71628;Laerm;59477;52.374;9.916;2023-12-22T08:55:57;57.79;51.65;72.67;;
71628;Laerm;59477;52.374;9.916;2023-12-22T08:58:15;58.26;50.97;77.30;;
71628;Laerm;59477;52.374;9.916;2023-12-22T09:00:34;56.41;51.37;68.94;;
71628;Laerm;59477;52.374;9.916;2023-12-22T09:02:54;57.64;50.05;76.54;;
71628;Laerm;59477;52.374;9.916;2023-12-22T09:05:13;54.99;50.23;63.38;;
71628;Laerm;59477;52.374;9.916;2023-12-22T09:07:32;55.26;50.72;62.73;;
71628;Laerm;59477;52.374;9.916;2023-12-22T09:09:51;58.18;51.70;78.16;;
71628;Laerm;59477;52.374;9.916;2023-12-22T09:12:10;56.63;50.04;75.56;;
71628;Laerm;59477;52.374;9.916;2023-12-22T09:14:28;59.63;50.82;79.57;;
71628;Laerm;59477;52.374;9.916;2023-12-22T09:16:47;62.56;51.98;87.05;;
71628;Laerm;59477;52.374;9.916;2023-12-22T09:18:48;56.85;51.27;72.04;;
71628;Laerm;59477;52.374;9.916;2023-12-22T09:20:48;56.34;50.65;72.54;;
71628;Laerm;59477;52.374;9.916;2023-12-22T09:22:48;57.15;51.69;69.97;;
71628;Laerm;59477;52.374;9.916;2023-12-22T09:24:49;58.15;49.40;77.78;;
71628;Laerm;59477;52.374;9.916;2023-12-22T09:26:49;55.11;51.08;60.71;;
71628;Laerm;59477;52.374;9.916;2023-12-22T09:28:51;55.89;50.11;69.25;;
71628;Laerm;59477;52.374;9.916;2023-12-22T09:30:51;56.20;51.47;62.08;;
71628;Laerm;59477;52.374;9.916;2023-12-22T09:32:51;54.39;50.26;58.34;;
71628;Laerm;59477;52.374;9.916;2023-12-22T09:34:52;55.08;49.43;65.98;;
71628;Laerm;59477;52.374;9.916;2023-12-22T09:36:53;56.45;50.45;65.13;;
71628;Laerm;59477;52.374;9.916;2023-12-22T09:38:53;56.48;50.55;74.71;;
71628;Laerm;59477;52.374;9.916;2023-12-22T09:40:53;54.94;47.94;75.11;;
71628;Laerm;59477;52.374;9.916;2023-12-22T09:42:54;55.37;49.00;68.67;;
71628;Laerm;59477;52.374;9.916;2023-12-22T09:44:55;54.26;50.23;65.56;;
71628;Laerm;59477;52.374;9.916;2023-12-22T09:46:57;54.50;49.85;65.05;;
71628;Laerm;59477;52.374;9.916;2023-12-22T09:48:58;55.70;50.33;69.44;;
71628;Laerm;59477;52.374;9.916;2023-12-22T09:50:58;57.79;50.14;75.14;;
71628;Laerm;59477;52.374;9.916;2023-12-22T09:53:00;54.52;46.93;68.15;;
71628;Laerm;59477;52.374;9.916;2023-12-22T09:55:00;54.23;46.52;61.13;;
71628;Laerm;59477;52.374;9.916;2023-12-22T09:57:01;54.58;49.33;66.20;;
71628;Laerm;59477;52.374;9.916;2023-12-22T09:59:05;55.17;49.88;67.20;;
71628;Laerm;59477;52.374;9.916;2023-12-22T10:01:05;60.02;48.90;85.27;;
71628;Laerm;59477;52.374;9.916;2023-12-22T10:03:06;54.37;49.48;62.25;;
71628;Laerm;59477;52.374;9.916;2023-12-22T10:05:09;56.35;51.21;70.28;;
71628;Laerm;59477;52.374;9.916;2023-12-22T10:07:16;58.48;51.43;74.73;;
71628;Laerm;59477;52.374;9.916;2023-12-22T10:09:17;59.13;50.14;76.86;;
71628;Laerm;59477;52.374;9.916;2023-12-22T10:14:00;58.50;51.09;76.47;;
71628;Laerm;59477;52.374;9.916;2023-12-22T10:16:07;58.32;52.01;74.89;;
71628;Laerm;59477;52.374;9.916;2023-12-22T10:18:13;61.10;52.03;76.10;;
71628;Laerm;59477;52.374;9.916;2023-12-22T10:20:22;60.93;52.50;78.93;;
71628;Laerm;59477;52.374;9.916;2023-12-22T10:22:37;58.67;51.81;79.09;;
71628;Laerm;59477;52.374;9.916;2023-12-22T10:26:44;58.42;51.22;76.78;;
71628;Laerm;59477;52.374;9.916;2023-12-22T10:28:47;56.86;49.77;76.46;;
71628;Laerm;59477;52.374;9.916;2023-12-22T10:33:44;53.81;47.65;79.01;;
71628;Laerm;59477;52.374;9.916;2023-12-22T10:35:47;57.07;48.68;83.68;;
71628;Laerm;59477;52.374;9.916;2023-12-22T10:37:54;54.71;47.90;75.40;;
71628;Laerm;59477;52.374;9.916;2023-12-22T10:40:07;56.89;48.90;74.89;;
71628;Laerm;59477;52.374;9.916;2023-12-22T10:42:08;60.61;49.99;79.99;;
71628;Laerm;59477;52.374;9.916;2023-12-22T10:44:10;56.37;51.22;71.69;;
71628;Laerm;59477;52.374;9.916;2023-12-22T10:46:10;54.77;50.88;65.25;;
71628;Laerm;59477;52.374;9.916;2023-12-22T10:48:13;55.98;49.52;69.60;;
71628;Laerm;59477;52.374;9.916;2023-12-22T10:50:13;57.98;50.79;87.23;;
71628;Laerm;59477;52.374;9.916;2023-12-22T10:52:17;61.85;52.67;81.93;;
71628;Laerm;59477;52.374;9.916;2023-12-22T10:54:18;65.50;52.38;90.59;;
71628;Laerm;59477;52.374;9.916;2023-12-22T10:56:19;62.08;51.01;85.50;;
71628;Laerm;59477;52.374;9.916;2023-12-22T10:58:20;61.93;52.00;85.75;;
71628;Laerm;59477;52.374;9.916;2023-12-22T11:00:21;58.66;51.57;74.87;;
71628;Laerm;59477;52.374;9.916;2023-12-22T11:02:22;59.83;51.04;75.32;;
71628;Laerm;59477;52.374;9.916;2023-12-22T11:04:23;59.84;51.57;81.32;;
71628;Laerm;59477;52.374;9.916;2023-12-22T11:06:25;56.48;50.70;67.30;;
71628;Laerm;59477;52.374;9.916;2023-12-22T11:08:29;55.07;50.16;63.74;;
71628;Laerm;59477;52.374;9.916;2023-12-22T11:10:30;57.11;51.98;69.17;;
71628;Laerm;59477;52.374;9.916;2023-12-22T11:12:34;57.12;53.27;65.02;;
71628;Laerm;59477;52.374;9.916;2023-12-22T11:14:35;55.98;51.24;63.46;;
71628;Laerm;59477;52.374;9.916;2023-12-22T11:16:36;56.90;52.52;64.17;;
71628;Laerm;59477;52.374;9.916;2023-12-22T11:18:36;56.60;52.43;61.81;;
71628;Laerm;59477;52.374;9.916;2023-12-22T11:20:37;57.75;53.03;67.41;;
71628;Laerm;59477;52.374;9.916;2023-12-22T11:22:37;58.59;54.07;62.79;;
71628;Laerm;59477;52.374;9.916;2023-12-22T11:24:38;57.77;53.06;64.74;;
71628;Laerm;59477;52.374;9.916;2023-12-22T11:26:45;56.79;52.88;64.52;;
71628;Laerm;59477;52.374;9.916;2023-12-22T11:28:56;57.10;52.24;68.70;;
71628;Laerm;59477;52.374;9.916;2023-12-22T11:30:56;57.14;51.25;63.28;;
71628;Laerm;59477;52.374;9.916;2023-12-22T11:33:03;57.24;52.79;65.06;;
71628;Laerm;59477;52.374;9.916;2023-12-22T11:35:23;57.95;52.61;65.59;;
71628;Laerm;59477;52.374;9.916;2023-12-22T11:37:25;57.29;52.89;63.70;;
71628;Laerm;59477;52.374;9.916;2023-12-22T11:39:26;57.80;53.17;69.69;;
71628;Laerm;59477;52.374;9.916;2023-12-22T11:41:30;57.45;52.84;72.23;;
71628;Laerm;59477;52.374;9.916;2023-12-22T11:43:32;56.50;50.64;63.99;;
71628;Laerm;59477;52.374;9.916;2023-12-22T11:45:34;56.87;52.60;65.66;;
71628;Laerm;59477;52.374;9.916;2023-12-22T11:47:34;56.89;53.05;65.33;;
71628;Laerm;59477;52.374;9.916;2023-12-22T11:49:35;57.99;53.33;69.17;;
71628;Laerm;59477;52.374;9.916;2023-12-22T11:51:35;59.71;52.43;83.74;;
71628;Laerm;59477;52.374;9.916;2023-12-22T11:53:36;56.86;51.32;64.52;;
71628;Laerm;59477;52.374;9.916;2023-12-22T11:57:55;57.14;51.68;70.12;;
71628;Laerm;59477;52.374;9.916;2023-12-22T11:59:57;58.43;51.67;80.45;;
71628;Laerm;59477;52.374;9.916;2023-12-22T12:01:57;59.31;52.82;81.01;;
71628;Laerm;59477;52.374;9.916;2023-12-22T12:03:58;56.87;51.82;68.17;;
71628;Laerm;59477;52.374;9.916;2023-12-22T12:08:18;57.04;52.11;71.85;;
71628;Laerm;59477;52.374;9.916;2023-12-22T12:12:32;66.55;51.77;87.76;;
71628;Laerm;59477;52.374;9.916;2023-12-22T12:14:37;61.44;48.12;79.48;;